Time;durP1;ratioP1;P1;durP2;ratioP2;P2;SDS_P1;SDS_P2;PMS_P1;PMS_P2;Temp;Humidity;BMP_temperature;BMP_pressure;BME280_temperature;BME280_humidity;BME280_pressure;Samples;Min_cycle;Max_cycle;Signal;HPM_P1;HPM_P2
2023/05/22 00:08:52;;;;;;;9.65;2.53;;;12.60;71.70;;;;;;4917106;28;20114;-69
2023/05/22 00:11:20;;;;;;;7.22;2.25;;;12.60;71.60;;;;;;4953644;28;20416;-69
2023/05/22 00:13:47;;;;;;;4.70;2.03;;;12.70;71.70;;;;;;4923804;29;20477;-69
2023/05/22 00:16:14;;;;;;;5.35;2.47;;;12.70;71.30;;;;;;4955808;28;20042;-69
2023/05/22 00:18:43;;;;;;;5.40;2.10;;;12.70;71.20;;;;;;4946151;28;20032;-69
2023/05/22 00:21:10;;;;;;;9.77;2.30;;;12.70;71.10;;;;;;4920654;29;20114;-69
2023/05/22 00:23:38;;;;;;;5.32;2.38;;;12.80;70.90;;;;;;4937481;29;20065;-69
2023/05/22 00:26:05;;;;;;;5.28;2.20;;;12.80;70.90;;;;;;4920382;29;20482;-69
2023/05/22 00:28:33;;;;;;;5.85;2.17;;;12.80;70.60;;;;;;4951626;28;20126;-68
2023/05/22 00:31:00;;;;;;;11.65;2.80;;;12.90;70.70;;;;;;4954600;29;20050;-68
2023/05/22 00:33:27;;;;;;;8.02;2.40;;;12.90;70.20;;;;;;4955032;28;20046;-69
2023/05/22 00:35:55;;;;;;;6.57;1.98;;;13.00;70.00;;;;;;4929374;29;20082;-69
2023/05/22 00:38:33;;;;;;;10.93;2.70;;;13.00;70.10;;;;;;4954802;28;20051;-69
2023/05/22 00:41:01;;;;;;;8.48;2.65;;;13.00;69.80;;;;;;4956420;29;20039;-69
2023/05/22 00:43:29;;;;;;;5.93;2.20;;;13.00;70.00;;;;;;4956296;29;20450;-68
2023/05/22 00:45:56;;;;;;;4.15;2.15;;;13.10;69.80;;;;;;4939081;29;20040;-68
2023/05/22 00:48:24;;;;;;;7.95;2.25;;;13.10;69.70;;;;;;4954930;28;20359;-69
2023/05/22 00:50:51;;;;;;;6.53;2.25;;;13.20;69.40;;;;;;4955396;28;20553;-69
2023/05/22 00:53:23;;;;;;;5.15;2.00;;;13.20;69.10;;;;;;4932590;28;20043;-69
2023/05/22 00:55:51;;;;;;;7.93;2.03;;;13.20;68.60;;;;;;4958254;28;20035;-69
2023/05/22 00:58:18;;;;;;;6.13;2.20;;;13.20;68.30;;;;;;4957867;28;20035;-69
2023/05/22 01:00:46;;;;;;;6.97;2.20;;;13.30;67.90;;;;;;4975415;28;20035;-69
2023/05/22 01:03:13;;;;;;;8.05;2.30;;;13.30;67.90;;;;;;4955661;28;20039;-69
2023/05/22 01:05:41;;;;;;;5.68;2.22;;;13.30;67.80;;;;;;4940672;28;20045;-69
2023/05/22 01:08:09;;;;;;;6.13;2.33;;;13.40;67.60;;;;;;4951274;28;20068;-69
2023/05/22 01:10:38;;;;;;;6.88;1.80;;;13.50;67.30;;;;;;4940697;28;20048;-68
2023/05/22 01:13:18;;;;;;;5.85;2.15;;;13.50;67.00;;;;;;4939763;29;20423;-69
2023/05/22 01:16:02;;;;;;;7.97;1.92;;;13.50;66.60;;;;;;4954003;28;20478;-68
2023/05/22 01:18:29;;;;;;;3.90;1.75;;;13.50;66.60;;;;;;4942488;28;20039;-68
2023/05/22 01:21:13;;;;;;;10.68;2.00;;;13.50;66.80;;;;;;4974398;28;20434;-68
2023/05/22 01:24:11;;;;;;;7.65;1.90;;;13.70;66.80;;;;;;4974237;28;20035;-68
2023/05/22 01:26:52;;;;;;;6.82;1.67;;;13.70;66.50;;;;;;4974527;28;20035;-69
2023/05/22 01:29:38;;;;;;;6.00;1.95;;;13.70;66.30;;;;;;4974692;28;20030;-69
2023/05/22 01:32:05;;;;;;;5.47;2.10;;;13.70;66.00;;;;;;4974659;28;20523;-69
2023/05/22 01:34:32;;;;;;;5.45;1.90;;;13.70;65.80;;;;;;4941653;28;20090;-69
2023/05/22 01:37:00;;;;;;;6.38;1.90;;;13.80;65.80;;;;;;4956858;28;20066;-69
2023/05/22 01:39:27;;;;;;;5.10;1.88;;;13.80;65.70;;;;;;4941560;28;20085;-70
2023/05/22 01:41:55;;;;;;;4.60;2.10;;;13.90;65.60;;;;;;4941576;28;20031;-72
2023/05/22 01:44:22;;;;;;;5.90;2.10;;;13.90;65.10;;;;;;4957307;28;20420;-72
2023/05/22 01:46:49;;;;;;;7.43;1.92;;;14.00;65.00;;;;;;4974408;28;20039;-72
2023/05/22 01:49:17;;;;;;;5.65;1.85;;;14.00;64.80;;;;;;4974296;28;20031;-69
2023/05/22 01:52:13;;;;;;;4.10;1.83;;;14.00;64.80;;;;;;4956692;28;20047;-69
2023/05/22 01:54:51;;;;;;;6.72;1.80;;;14.00;64.30;;;;;;4955036;28;20039;-71
2023/05/22 01:57:37;;;;;;;6.50;1.58;;;14.10;63.90;;;;;;4941250;28;20397;-69
2023/05/22 02:00:14;;;;;;;5.07;1.90;;;14.10;63.60;;;;;;4942289;28;20110;-70
2023/05/22 02:02:43;;;;;;;3.13;1.50;;;14.10;63.50;;;;;;4958004;28;20034;-69
2023/05/22 02:05:11;;;;;;;8.57;2.00;;;14.20;63.20;;;;;;4941052;28;20424;-69
2023/05/22 04:47:02;;;;;;;1.95;1.10;;;15.60;47.90;;;;;;4926946;29;20167;-66
2023/05/22 04:49:30;;;;;;;4.43;1.50;;;15.70;48.30;;;;;;4936098;29;20047;-67
2023/05/22 04:51:58;;;;;;;2.42;1.08;;;15.60;48.10;;;;;;4935572;29;20114;-69
2023/05/22 04:54:25;;;;;;;4.00;1.33;;;15.70;47.70;;;;;;4930989;29;20038;-68
2023/05/22 04:56:53;;;;;;;3.90;1.20;;;15.70;47.80;;;;;;4933784;29;20032;-66
2023/05/22 04:59:22;;;;;;;5.65;1.63;;;15.70;47.70;;;;;;4933555;29;20378;-65
2023/05/22 05:01:50;;;;;;;2.88;1.20;;;15.70;47.90;;;;;;4932956;29;20544;-66
2023/05/22 05:04:18;;;;;;;2.83;1.15;;;15.70;47.60;;;;;;4917531;29;20043;-65
2023/05/22 05:06:45;;;;;;;2.83;1.13;;;15.70;47.80;;;;;;4932974;29;20514;-66
2023/05/22 05:09:13;;;;;;;5.60;1.27;;;15.70;47.70;;;;;;4936560;29;20583;-66
2023/05/22 05:11:40;;;;;;;4.15;1.38;;;15.70;47.70;;;;;;4931738;29;20419;-67
2023/05/22 05:14:08;;;;;;;4.53;1.50;;;15.70;47.80;;;;;;4931340;29;20032;-68
2023/05/22 05:16:35;;;;;;;2.80;1.30;;;15.70;47.80;;;;;;4933505;29;20394;-66
2023/05/22 05:19:02;;;;;;;2.75;1.08;;;15.70;48.00;;;;;;4931449;29;20032;-68
2023/05/22 05:21:30;;;;;;;2.78;1.17;;;15.80;47.60;;;;;;4932976;29;20046;-71
2023/05/22 05:23:57;;;;;;;4.60;1.48;;;15.80;46.80;;;;;;4952771;29;20691;-68
2023/05/22 05:26:26;;;;;;;3.90;1.30;;;15.80;46.80;;;;;;4952854;29;20043;-68
2023/05/22 05:28:55;;;;;;;2.80;1.30;;;15.80;46.70;;;;;;4950825;29;20090;-69
2023/05/22 05:31:22;;;;;;;2.60;1.10;;;15.80;46.80;;;;;;4935124;29;20089;-69
2023/05/22 05:33:50;;;;;;;2.92;1.33;;;15.80;46.20;;;;;;4952476;29;20460;-71
2023/05/22 05:36:18;;;;;;;4.30;1.33;;;15.80;45.10;;;;;;4952339;29;20046;-69
2023/05/22 05:38:45;;;;;;;5.32;1.40;;;15.80;45.00;;;;;;4935655;29;21718;-69
2023/05/22 05:41:13;;;;;;;5.25;1.45;;;15.80;45.00;;;;;;4900323;29;20406;-67
2023/05/22 05:43:40;;;;;;;2.42;1.30;;;15.90;45.70;;;;;;4922633;29;20047;-65
2023/05/22 05:46:08;;;;;;;3.08;1.25;;;15.80;45.20;;;;;;4929870;29;20430;-66
2023/05/22 05:48:35;;;;;;;2.67;1.17;;;15.90;45.40;;;;;;4931319;29;20453;-66
2023/05/22 05:51:03;;;;;;;6.18;1.33;;;15.80;45.80;;;;;;4927073;29;20058;-67
2023/05/22 05:53:31;;;;;;;3.85;1.40;;;15.80;45.40;;;;;;4931610;29;20689;-68
2023/05/22 05:55:58;;;;;;;5.10;1.50;;;15.90;45.50;;;;;;4930260;29;20040;-67
2023/05/22 05:58:26;;;;;;;4.97;1.40;;;15.90;45.90;;;;;;4930906;28;20126;-67
2023/05/22 06:00:53;;;;;;;5.55;1.58;;;16.00;46.00;;;;;;4933072;29;20031;-67
2023/05/22 06:03:21;;;;;;;9.40;1.50;;;16.00;46.40;;;;;;4929185;29;20039;-67
2023/05/22 06:05:48;;;;;;;6.55;1.73;;;16.00;47.80;;;;;;4931755;29;20036;-67
2023/05/22 06:08:18;;;;;;;6.80;1.80;;;16.00;49.60;;;;;;4936853;29;20137;-68
2023/05/22 06:10:46;;;;;;;7.78;1.98;;;16.00;51.00;;;;;;4938222;29;20042;-68
2023/05/22 06:13:13;;;;;;;7.57;1.73;;;15.90;51.40;;;;;;4930633;29;20147;-67
2023/05/22 06:15:41;;;;;;;10.52;2.20;;;15.90;51.80;;;;;;4939602;29;20039;-67
2023/05/22 06:18:08;;;;;;;11.43;2.00;;;15.90;52.30;;;;;;4945884;29;20042;-68
2023/05/22 06:20:36;;;;;;;10.98;2.25;;;15.80;52.70;;;;;;4942313;29;20465;-68
2023/05/22 06:23:03;;;;;;;8.00;2.53;;;15.80;53.60;;;;;;4938628;29;20494;-68
2023/05/22 06:25:30;;;;;;;6.40;2.00;;;15.80;54.20;;;;;;4952954;29;20050;-69
2023/05/22 06:27:58;;;;;;;10.73;2.65;;;15.80;54.70;;;;;;4943275;29;20036;-68
2023/05/22 06:30:25;;;;;;;8.98;1.95;;;15.70;55.40;;;;;;4921385;29;20122;-68
2023/05/22 06:32:53;;;;;;;7.82;2.30;;;15.70;56.30;;;;;;4935523;29;20044;-68
2023/05/22 06:35:20;;;;;;;11.60;2.30;;;15.70;56.80;;;;;;4929194;29;20040;-68
2023/05/22 06:37:48;;;;;;;14.95;2.65;;;15.70;57.40;;;;;;4940825;29;20047;-69
2023/05/22 11:35:20;;;;;;;17.25;4.53;;;12.90;78.00;;;;;;4925370;29;20130;-67
2023/05/22 11:37:48;;;;;;;12.93;4.25;;;12.80;78.00;;;;;;4945136;28;20570;-69
2023/05/22 11:40:17;;;;;;;14.85;4.82;;;12.80;78.20;;;;;;4918852;29;20039;-68
2023/05/22 11:42:45;;;;;;;18.00;5.05;;;12.80;78.30;;;;;;4951383;29;20081;-68
2023/05/22 11:45:13;;;;;;;21.33;5.72;;;12.80;78.50;;;;;;4953974;29;20434;-69
2023/05/22 11:47:40;;;;;;;16.40;4.80;;;12.70;78.70;;;;;;4954476;28;20035;-67
2023/05/22 11:50:11;;;;;;;14.48;4.78;;;12.70;78.80;;;;;;4925368;28;20094;-67
2023/05/22 11:52:40;;;;;;;15.02;4.60;;;12.70;78.90;;;;;;4954956;28;20106;-65
2023/05/22 11:55:08;;;;;;;13.40;4.20;;;12.70;79.00;;;;;;4935800;29;20035;-67
2023/05/22 11:57:36;;;;;;;13.38;4.63;;;12.70;78.90;;;;;;4917020;29;20112;-67
2023/05/22 12:00:07;;;;;;;13.63;3.70;;;12.70;78.90;;;;;;4939263;29;20040;-67
2023/05/22 12:02:35;;;;;;;14.20;3.97;;;12.70;79.10;;;;;;4953385;28;20042;-67
2023/05/22 12:05:03;;;;;;;12.43;4.82;;;12.70;79.20;;;;;;4957141;28;20039;-68
2023/05/22 12:07:30;;;;;;;19.10;6.68;;;12.70;79.30;;;;;;4948789;28;20155;-69
2023/05/22 12:09:59;;;;;;;42.50;18.95;;;12.60;79.50;;;;;;4948867;28;20035;-69
2023/05/22 12:12:27;;;;;;;45.67;22.17;;;12.70;79.30;;;;;;4953379;28;20039;-69
2023/05/22 12:14:54;;;;;;;26.38;11.90;;;12.70;79.30;;;;;;4950509;28;20047;-68
2023/05/22 12:17:22;;;;;;;23.75;9.43;;;12.70;79.20;;;;;;4948815;28;20126;-67
2023/05/22 12:19:50;;;;;;;20.88;6.68;;;12.70;79.20;;;;;;4947536;28;20394;-67
2023/05/22 12:22:17;;;;;;;16.40;5.40;;;12.70;79.00;;;;;;4948311;28;20054;-68
2023/05/22 12:24:45;;;;;;;13.25;5.00;;;12.70;78.80;;;;;;4935154;29;20035;-68
2023/05/22 12:27:13;;;;;;;14.32;4.97;;;12.70;78.80;;;;;;4952050;28;20039;-68
2023/05/22 12:29:41;;;;;;;15.82;5.22;;;12.70;78.90;;;;;;4951265;28;20039;-70
2023/05/22 12:32:10;;;;;;;15.38;5.45;;;12.70;79.00;;;;;;4915796;28;20386;-66
2023/05/22 12:52:33;;;;;;;17.40;4.85;;;12.50;80.00;;;;;;4925874;28;20058;-66
2023/05/22 12:55:01;;;;;;;18.38;4.70;;;12.50;80.40;;;;;;4929539;29;20107;-66
2023/05/22 12:57:28;;;;;;;15.82;4.97;;;12.40;80.40;;;;;;4923510;29;20039;-66
2023/05/22 12:59:55;;;;;;;13.70;4.53;;;12.40;81.10;;;;;;4949733;29;20031;-66
2023/05/22 13:02:23;;;;;;;14.27;5.05;;;12.40;81.30;;;;;;4934001;29;20059;-66
2023/05/22 13:04:50;;;;;;;17.80;4.85;;;12.40;81.70;;;;;;4917848;29;20406;-66
2023/05/22 13:07:18;;;;;;;14.35;4.80;;;12.40;81.40;;;;;;4938142;29;20482;-66
2023/05/22 13:09:45;;;;;;;16.35;4.70;;;12.40;81.50;;;;;;4935948;29;20120;-66
2023/05/22 13:12:13;;;;;;;17.45;5.07;;;12.30;81.40;;;;;;4937671;29;20054;-66
2023/05/22 13:14:40;;;;;;;15.27;5.20;;;12.30;81.30;;;;;;4936309;29;20475;-67
2023/05/22 13:17:08;;;;;;;15.55;5.60;;;12.30;81.20;;;;;;4934372;29;20036;-66
2023/05/22 13:19:35;;;;;;;19.08;5.38;;;12.30;81.10;;;;;;4934997;29;20074;-66
2023/05/22 13:22:02;;;;;;;15.70;5.22;;;12.30;81.20;;;;;;4933706;29;20095;-66
2023/05/22 13:24:30;;;;;;;15.32;5.63;;;12.30;81.30;;;;;;4917389;29;20471;-67
2023/05/22 13:26:57;;;;;;;20.95;5.90;;;12.20;81.40;;;;;;4945221;29;20079;-67
2023/05/22 13:29:25;;;;;;;13.18;5.20;;;12.20;81.60;;;;;;4940117;29;20036;-66
2023/05/22 13:31:52;;;;;;;15.90;5.40;;;12.20;81.80;;;;;;4938594;29;20040;-66
2023/05/22 13:34:20;;;;;;;14.70;5.25;;;12.10;82.00;;;;;;4937603;29;20040;-66
2023/05/22 13:36:47;;;;;;;14.05;5.65;;;12.20;82.00;;;;;;4947652;29;20043;-67
2023/05/22 13:39:15;;;;;;;16.58;6.00;;;12.10;82.10;;;;;;4952802;28;20035;-67
2023/05/22 13:41:42;;;;;;;20.20;6.00;;;12.10;82.10;;;;;;4918582;29;20040;-66
2023/05/22 13:44:09;;;;;;;21.00;5.72;;;12.10;81.90;;;;;;4916093;29;20086;-66
2023/05/22 13:46:37;;;;;;;19.45;6.53;;;12.00;82.00;;;;;;4936379;29;20079;-66
2023/05/22 13:49:04;;;;;;;12.55;5.70;;;12.00;82.00;;;;;;4936234;29;20067;-66
2023/05/22 13:51:32;;;;;;;18.88;5.80;;;11.90;82.00;;;;;;4935413;29;20439;-66
2023/05/22 15:03:26;;;;;;;15.32;5.90;;;11.40;80.00;;;;;;4948015;28;20166;-68
2023/05/22 15:05:54;;;;;;;24.55;6.50;;;11.40;79.40;;;;;;4928793;29;20064;-68
2023/05/22 15:08:21;;;;;;;16.83;6.20;;;11.40;79.30;;;;;;4933145;29;20028;-68
2023/05/22 15:10:49;;;;;;;20.88;6.18;;;11.40;79.10;;;;;;4917493;29;20075;-68
2023/05/22 15:13:16;;;;;;;20.13;6.22;;;11.50;78.90;;;;;;4926675;29;20064;-68
2023/05/22 15:15:44;;;;;;;18.88;6.47;;;11.40;78.80;;;;;;4936547;29;20036;-68
2023/05/22 15:18:12;;;;;;;28.40;6.43;;;11.40;79.00;;;;;;4934525;29;20039;-68
2023/05/22 15:20:39;;;;;;;18.83;5.95;;;11.40;78.90;;;;;;4944108;29;20040;-68
2023/05/22 15:23:07;;;;;;;19.35;5.75;;;11.40;78.90;;;;;;4934597;29;20111;-68
2023/05/22 15:25:35;;;;;;;22.55;6.05;;;11.40;78.90;;;;;;4937123;29;20031;-68
2023/05/22 15:28:06;;;;;;;15.45;5.50;;;11.40;79.00;;;;;;4934644;29;20038;-68
2023/05/22 15:30:37;;;;;;;25.02;6.07;;;11.40;79.10;;;;;;4935396;29;20036;-68
2023/05/22 15:33:05;;;;;;;14.52;5.10;;;11.30;79.00;;;;;;4927593;29;20063;-68
2023/05/22 15:35:32;;;;;;;18.73;5.63;;;11.20;79.10;;;;;;4947539;29;20046;-68
2023/05/22 15:38:01;;;;;;;17.05;5.70;;;11.30;79.30;;;;;;4952245;28;20039;-68
2023/05/22 15:40:29;;;;;;;17.58;5.70;;;11.20;79.80;;;;;;4937297;29;20158;-68
2023/05/22 15:42:56;;;;;;;15.63;5.25;;;11.20;80.20;;;;;;4933508;29;20107;-68
2023/05/22 15:45:24;;;;;;;21.33;5.80;;;11.30;80.70;;;;;;4938638;29;20087;-69
2023/05/22 15:47:52;;;;;;;15.75;5.13;;;11.20;80.90;;;;;;4952534;28;20043;-68
2023/05/22 15:50:19;;;;;;;12.93;5.50;;;11.20;81.20;;;;;;4941942;29;20114;-68
2023/05/22 15:52:46;;;;;;;20.02;6.05;;;11.20;81.40;;;;;;4933816;29;20086;-68
2023/05/22 15:55:14;;;;;;;14.85;5.60;;;11.10;81.60;;;;;;4930018;29;20506;-68
2023/05/22 15:57:41;;;;;;;13.35;5.03;;;11.10;81.70;;;;;;4939985;29;20074;-68
2023/05/22 16:00:09;;;;;;;11.32;5.07;;;11.00;81.60;;;;;;4947402;29;20042;-68
2023/05/22 16:02:37;;;;;;;12.63;5.40;;;11.00;81.20;;;;;;4935524;29;20069;-68
2023/05/22 19:00:55;;;;;;;6.80;3.13;;;9.80;82.40;;;;;;4933081;29;20144;-68
2023/05/22 19:03:22;;;;;;;7.35;3.75;;;9.80;82.40;;;;;;4940679;29;20043;-68
2023/05/22 19:05:49;;;;;;;7.18;3.05;;;9.80;82.20;;;;;;4952291;29;20050;-69
2023/05/22 19:08:17;;;;;;;13.80;3.78;;;9.80;82.20;;;;;;4933851;29;20498;-69
2023/05/22 19:10:44;;;;;;;7.38;3.58;;;9.80;83.00;;;;;;4935164;29;20517;-69
2023/05/22 19:13:12;;;;;;;10.10;3.40;;;9.70;82.80;;;;;;4939068;29;20113;-70
2023/05/22 19:15:39;;;;;;;11.73;4.30;;;9.70;82.80;;;;;;4932634;29;20043;-69
2023/05/22 19:18:07;;;;;;;7.82;3.22;;;9.70;82.70;;;;;;4916035;29;20494;-68
2023/05/22 19:20:34;;;;;;;9.68;3.80;;;9.70;82.80;;;;;;4933719;29;20090;-68
2023/05/22 19:23:02;;;;;;;10.40;3.70;;;9.70;82.90;;;;;;4905770;29;20043;-68
2023/05/22 19:25:30;;;;;;;8.05;3.45;;;9.70;82.80;;;;;;4947249;29;20040;-68
2023/05/22 19:27:58;;;;;;;12.52;3.92;;;9.60;82.90;;;;;;4933650;29;20075;-68
2023/05/22 19:30:25;;;;;;;9.38;3.15;;;9.60;83.10;;;;;;4934135;29;20115;-69
2023/05/22 19:32:55;;;;;;;9.63;3.60;;;9.60;83.50;;;;;;4938227;29;20536;-69
2023/05/22 19:35:22;;;;;;;17.67;3.70;;;9.50;83.30;;;;;;4938566;29;20032;-69
2023/05/22 19:37:50;;;;;;;7.22;3.13;;;9.50;83.30;;;;;;4939179;29;20036;-69
2023/05/22 19:40:17;;;;;;;14.05;3.75;;;9.50;83.30;;;;;;4940233;29;20032;-68
2023/05/22 19:42:45;;;;;;;13.15;3.65;;;9.60;83.50;;;;;;4936106;29;20043;-68
2023/05/22 19:45:12;;;;;;;11.10;4.10;;;9.70;83.80;;;;;;4940361;29;20035;-67
2023/05/22 19:47:40;;;;;;;10.48;4.15;;;9.70;84.10;;;;;;4938115;29;20042;-68
2023/05/22 19:50:08;;;;;;;17.48;3.88;;;9.60;83.70;;;;;;4921232;29;20092;-69
2023/05/22 19:52:35;;;;;;;9.20;3.33;;;9.60;83.90;;;;;;4923911;29;20126;-68
2023/05/22 19:55:02;;;;;;;9.02;3.47;;;9.70;84.00;;;;;;4937321;29;20036;-69
2023/05/22 19:57:30;;;;;;;9.75;4.05;;;9.60;83.60;;;;;;4935520;28;20028;-68
2023/05/22 19:59:57;;;;;;;9.00;4.25;;;9.60;83.60;;;;;;4933212;29;20184;-69
2023/05/22 20:02:25;;;;;;;10.70;3.50;;;9.60;83.20;;;;;;4937661;29;20043;-68
2023/05/22 20:04:53;;;;;;;8.95;3.63;;;9.60;83.20;;;;;;4937483;29;20073;-68
2023/05/22 20:07:21;;;;;;;10.40;3.80;;;9.60;83.00;;;;;;4938593;29;20130;-71
2023/05/22 20:09:48;;;;;;;9.52;3.28;;;9.60;82.90;;;;;;4935240;29;20068;-73
2023/05/22 20:12:16;;;;;;;10.02;3.65;;;9.60;82.80;;;;;;4945978;29;20043;-73
2023/05/22 20:14:43;;;;;;;10.40;3.42;;;9.60;82.90;;;;;;4956761;29;20183;-73
2023/05/22 20:17:11;;;;;;;15.82;3.45;;;9.60;82.80;;;;;;4942111;29;20391;-72
2023/05/22 20:19:38;;;;;;;11.57;4.07;;;9.50;82.50;;;;;;4938309;29;20035;-73
2023/05/22 20:22:06;;;;;;;10.57;3.53;;;9.50;82.40;;;;;;4936306;29;20104;-73
2023/05/22 20:24:34;;;;;;;14.23;4.20;;;9.50;82.50;;;;;;4937339;29;20498;-72
2023/05/22 20:27:03;;;;;;;18.65;4.25;;;9.50;82.40;;;;;;4920654;29;20036;-72
2023/05/22 20:29:31;;;;;;;15.88;4.15;;;9.50;82.20;;;;;;4936484;29;20035;-72
2023/05/22 20:31:58;;;;;;;17.55;4.13;;;9.50;82.30;;;;;;4936787;29;20107;-72
2023/05/22 20:34:27;;;;;;;17.98;4.10;;;9.50;82.20;;;;;;4936475;29;20451;-73
2023/05/22 20:36:54;;;;;;;10.95;3.75;;;9.50;82.20;;;;;;4934010;29;20046;-72
2023/05/22 20:39:22;;;;;;;17.15;3.65;;;9.50;82.10;;;;;;4915468;29;20087;-72
2023/05/22 20:41:49;;;;;;;17.73;4.10;;;9.50;82.10;;;;;;4937103;29;20130;-71
2023/05/22 20:44:23;;;;;;;20.52;4.75;;;9.50;82.10;;;;;;4937946;29;20095;-74
2023/05/22 20:46:54;;;;;;;15.60;3.45;;;9.50;82.10;;;;;;4937305;29;20039;-71
2023/05/22 20:49:21;;;;;;;16.33;4.00;;;9.40;82.10;;;;;;4936794;29;20038;-71
2023/05/22 20:51:49;;;;;;;13.57;3.42;;;9.50;82.00;;;;;;4936100;29;20043;-73
2023/05/22 20:54:20;;;;;;;19.88;4.15;;;9.40;82.10;;;;;;4935449;29;20094;-74
2023/05/22 20:56:47;;;;;;;12.45;3.53;;;9.40;82.00;;;;;;4936892;29;20446;-73
2023/05/22 22:07:34;;;;;;;11.18;2.78;;;10.10;78.30;;;;;;4931087;28;20059;-70
2023/05/22 22:10:01;;;;;;;7.95;2.60;;;10.20;77.50;;;;;;4914397;29;20053;-72
2023/05/22 22:12:28;;;;;;;8.25;2.75;;;10.20;77.30;;;;;;4899771;29;20407;-71
2023/05/22 22:14:57;;;;;;;9.07;2.83;;;10.20;76.90;;;;;;4916462;29;20040;-71
2023/05/22 22:17:24;;;;;;;5.97;2.75;;;10.30;77.00;;;;;;4899321;29;20414;-72
2023/05/22 22:19:55;;;;;;;6.18;2.65;;;10.30;76.80;;;;;;4916345;29;20048;-72
2023/05/22 22:22:23;;;;;;;10.50;2.80;;;10.40;76.20;;;;;;4899169;29;20103;-72
2023/05/22 22:24:51;;;;;;;5.22;2.47;;;10.40;76.50;;;;;;4897685;29;20036;-72
2023/05/22 22:27:18;;;;;;;12.43;3.42;;;10.40;76.00;;;;;;4917975;29;20036;-71
2023/05/22 22:29:46;;;;;;;9.70;2.75;;;10.50;75.90;;;;;;4935272;29;20035;-71
2023/05/22 22:32:13;;;;;;;10.23;3.35;;;10.50;75.60;;;;;;4935005;29;20047;-71
2023/05/22 22:34:41;;;;;;;11.50;3.20;;;10.50;75.00;;;;;;4918476;29;20743;-72
2023/05/22 22:37:09;;;;;;;12.40;3.50;;;10.50;74.70;;;;;;4918514;29;20402;-72
2023/05/22 22:39:37;;;;;;;7.07;2.90;;;10.60;75.00;;;;;;4935476;29;20032;-72
2023/05/22 22:42:05;;;;;;;14.57;3.17;;;10.60;74.60;;;;;;4918184;29;20070;-72
2023/05/22 22:44:32;;;;;;;12.32;3.65;;;10.70;74.50;;;;;;4934880;29;20427;-71
2023/05/22 22:47:01;;;;;;;11.65;3.50;;;10.70;74.20;;;;;;4918076;29;20044;-71
2023/05/22 22:49:29;;;;;;;18.15;3.90;;;10.70;74.10;;;;;;4918470;29;20036;-71
2023/05/22 22:51:57;;;;;;;15.10;3.63;;;10.70;74.00;;;;;;4935039;29;20043;-70
2023/05/22 22:54:24;;;;;;;13.55;3.28;;;10.80;73.90;;;;;;4935011;29;20036;-71
2023/05/22 22:56:52;;;;;;;9.52;3.38;;;10.80;73.70;;;;;;4918282;29;20031;-71
2023/05/22 22:59:19;;;;;;;8.60;3.20;;;10.90;73.00;;;;;;4935137;29;20087;-70
2023/05/22 23:01:47;;;;;;;15.48;3.10;;;10.90;73.10;;;;;;4918330;29;20517;-70
2023/05/22 23:04:14;;;;;;;9.13;3.22;;;10.90;72.50;;;;;;4935196;29;20024;-71
2023/05/22 23:06:41;;;;;;;15.15;3.90;;;11.00;72.70;;;;;;4939119;29;20043;-71
